createdAt,value
2017-11-28T00:00:08.244Z,22.57
2017-11-28T00:02:36.308Z,23.60
2017-11-28T00:05:04.608Z,22.80
2017-11-28T00:07:32.797Z,21.83
2017-11-28T00:10:00.837Z,22.17
2017-11-28T00:12:29.149Z,25.33
2017-11-28T00:14:57.265Z,23.97
2017-11-28T00:17:26.145Z,23.63
2017-11-28T00:19:55.249Z,24.10
2017-11-28T00:22:24.019Z,23.47
2017-11-28T00:24:52.213Z,24.20
2017-11-28T00:27:21.205Z,23.63
2017-11-28T00:29:50.148Z,23.90
2017-11-28T00:32:18.349Z,23.47
2017-11-28T00:34:46.529Z,24.00
2017-11-28T00:37:14.782Z,24.20
2017-11-28T00:39:42.950Z,23.70
2017-11-28T00:42:11.378Z,23.10
2017-11-28T00:44:40.360Z,23.67
2017-11-28T00:47:09.233Z,25.00
2017-11-28T00:49:37.581Z,24.20
2017-11-28T00:52:05.884Z,24.67
2017-11-28T00:54:34.090Z,23.23
2017-11-28T00:57:02.277Z,24.27
2017-11-28T00:59:31.176Z,23.00
2017-11-28T01:02:00.081Z,23.10
2017-11-28T01:04:28.291Z,24.83
2017-11-28T01:06:56.373Z,23.07
2017-11-28T01:09:24.514Z,23.73
2017-11-28T01:11:52.722Z,25.33
2017-11-28T01:14:20.949Z,24.27
2017-11-28T01:16:49.125Z,23.50
2017-11-28T01:19:17.416Z,22.50
2017-11-28T01:21:45.658Z,23.63
2017-11-28T01:24:14.625Z,23.23
2017-11-28T01:26:42.920Z,21.73
2017-11-28T01:29:11.007Z,23.10
2017-11-28T01:31:40.194Z,22.13
2017-11-28T01:34:08.595Z,22.43
2017-11-28T01:36:37.608Z,22.37
2017-11-28T01:39:05.840Z,22.20
2017-11-28T01:41:34.264Z,23.77
2017-11-28T01:44:02.611Z,23.30
2017-11-28T01:46:30.887Z,22.10
2017-11-28T01:48:59.288Z,21.10
2017-11-28T01:51:28.337Z,23.00
2017-11-28T01:53:56.632Z,23.27
2017-11-28T01:56:25.088Z,23.07
2017-11-28T01:58:53.357Z,22.57
2017-11-28T02:01:21.588Z,24.13
2017-11-28T02:03:50.753Z,22.93
2017-11-28T02:06:18.917Z,22.47
2017-11-28T02:08:47.189Z,23.70
2017-11-28T02:11:15.557Z,23.30
2017-11-28T02:13:43.625Z,22.93
2017-11-28T02:16:12.049Z,22.50
2017-11-28T02:18:40.592Z,22.97
2017-11-28T02:21:09.053Z,22.63
2017-11-28T02:23:38.153Z,23.93
2017-11-28T02:26:07.368Z,24.87
2017-11-28T02:28:35.697Z,24.90
2017-11-28T02:31:04.070Z,23.50
2017-11-28T02:33:32.557Z,24.40
2017-11-28T02:36:00.861Z,22.13
2017-11-28T02:38:29.916Z,25.80
2017-11-28T02:41:10.521Z,24.10
2017-11-28T02:43:39.577Z,23.63
2017-11-28T02:46:09.687Z,27.27
2017-11-28T02:48:38.118Z,25.63
2017-11-28T02:51:13.602Z,26.17
2017-11-28T02:53:41.953Z,25.90
2017-11-28T02:56:11.022Z,26.57
2017-11-28T02:58:41.301Z,25.73
2017-11-28T03:01:17.555Z,24.03
2017-11-28T03:03:45.970Z,22.53
2017-11-28T03:06:15.085Z,25.40
2017-11-28T03:08:46.540Z,24.97
2017-11-28T03:11:14.842Z,25.00
2017-11-28T03:13:46.690Z,24.10
2017-11-28T03:16:21.349Z,24.40
2017-11-28T03:19:18.873Z,26.47
2017-11-28T03:21:50.930Z,28.33
2017-11-28T03:24:36.353Z,27.87
2017-11-28T03:27:04.664Z,27.90
2017-11-28T03:29:35.821Z,26.00
2017-11-28T03:32:04.133Z,26.30
2017-11-28T03:34:33.432Z,26.03
2017-11-28T03:37:02.492Z,25.90
2017-11-28T03:39:30.962Z,24.03
2017-11-28T03:41:59.261Z,21.40
2017-11-28T03:44:32.392Z,22.60
2017-11-28T03:47:01.620Z,23.93
2017-11-28T03:49:29.960Z,21.40
2017-11-28T03:51:58.993Z,22.50
2017-11-28T03:54:27.293Z,21.70
2017-11-28T03:56:55.621Z,21.03
2017-11-28T03:59:24.705Z,22.50
2017-11-28T04:01:52.961Z,20.37
2017-11-28T04:04:21.249Z,22.60
2017-11-28T04:06:49.581Z,20.20
2017-11-28T04:09:17.900Z,22.00
2017-11-28T04:11:46.181Z,23.83
2017-11-28T04:14:14.617Z,24.80
2017-11-28T04:16:42.936Z,22.33
2017-11-28T04:19:11.258Z,22.93
2017-11-28T04:21:40.433Z,22.57
2017-11-28T04:24:08.749Z,24.43
2017-11-28T04:26:37.039Z,20.00
2017-11-28T04:29:05.481Z,19.93
2017-11-28T04:31:34.551Z,22.90
2017-11-28T04:34:02.877Z,22.17
2017-11-28T04:36:31.457Z,20.83
2017-11-28T04:39:00.533Z,20.70
2017-11-28T04:41:29.552Z,23.20
2017-11-28T04:43:58.026Z,19.90
2017-11-28T04:46:27.055Z,20.90
2017-11-28T04:48:55.350Z,20.40
2017-11-28T04:51:23.782Z,20.53
2017-11-28T04:53:52.850Z,20.40
2017-11-28T04:56:21.138Z,19.10
2017-11-28T04:58:50.173Z,21.30
2017-11-28T05:01:18.525Z,20.03
2017-11-28T05:03:47.440Z,19.87
2017-11-28T05:06:15.853Z,18.73
2017-11-28T05:08:44.164Z,19.23
2017-11-28T05:11:13.245Z,18.37
2017-11-28T05:13:41.654Z,18.83
2017-11-28T05:16:10.712Z,17.20
2017-11-28T05:18:39.077Z,20.20
2017-11-28T05:21:07.441Z,17.57
2017-11-28T05:23:35.709Z,18.30
2017-11-28T05:26:03.997Z,19.30
2017-11-28T05:28:32.429Z,16.63
2017-11-28T05:31:00.680Z,16.10
2017-11-28T05:33:29.004Z,18.23
2017-11-28T05:35:58.176Z,17.97
2017-11-28T05:38:26.691Z,16.57
2017-11-28T05:40:54.966Z,17.67
2017-11-28T05:43:24.149Z,16.67
2017-11-28T05:45:55.990Z,17.80
2017-11-28T05:48:24.273Z,17.10
2017-11-28T05:50:52.556Z,17.10
2017-11-28T05:53:26.357Z,17.93
2017-11-28T05:55:54.693Z,15.73
2017-11-28T05:58:22.976Z,16.33
2017-11-28T06:00:55.084Z,18.20
2017-11-28T06:03:23.385Z,16.23
2017-11-28T06:05:52.473Z,17.33
2017-11-28T06:08:25.188Z,17.30
2017-11-28T06:10:53.469Z,16.93
2017-11-28T06:13:21.784Z,17.03
2017-11-28T06:15:50.237Z,17.83
2017-11-28T06:18:18.813Z,17.50
2017-11-28T06:20:47.146Z,19.33
2017-11-28T06:23:15.577Z,16.70
2017-11-28T06:25:43.885Z,19.90
2017-11-28T06:28:12.317Z,18.70
2017-11-28T06:30:40.765Z,20.60
2017-11-28T06:33:09.049Z,20.47
2017-11-28T06:35:38.373Z,19.23
2017-11-28T06:38:07.520Z,19.07
2017-11-28T06:40:35.994Z,20.10
2017-11-28T06:43:04.292Z,19.00
2017-11-28T06:45:32.685Z,19.30
2017-11-28T06:48:01.020Z,19.67
2017-11-28T06:50:29.345Z,17.63
2017-11-28T06:52:57.889Z,16.40
2017-11-28T06:55:26.218Z,12.03
2017-11-28T06:57:55.253Z,10.10
2017-11-28T07:00:23.712Z,11.20
2017-11-28T07:02:52.772Z,11.07
2017-11-28T07:05:21.091Z,10.90
2017-11-28T07:07:50.292Z,10.27
2017-11-28T07:10:18.609Z,10.40
2017-11-28T07:12:46.912Z,11.47
2017-11-28T07:15:15.336Z,10.70
2017-11-28T07:17:43.624Z,10.67
2017-11-28T07:20:11.910Z,11.43
2017-11-28T07:22:40.352Z,11.20
2017-11-28T07:25:09.391Z,11.70
2017-11-28T07:27:37.684Z,11.03
2017-11-28T07:30:06.084Z,11.50
2017-11-28T07:32:34.405Z,9.20
2017-11-28T07:35:02.690Z,10.60
2017-11-28T07:37:31.092Z,10.63
2017-11-28T07:39:59.385Z,10.17
2017-11-28T07:42:27.831Z,9.73
2017-11-28T07:44:56.265Z,10.80
2017-11-28T07:47:24.544Z,9.97
2017-11-28T07:49:52.812Z,8.73
2017-11-28T07:52:21.217Z,9.43
2017-11-28T07:54:50.233Z,9.30
2017-11-28T07:57:18.504Z,10.10
2017-11-28T07:59:47.808Z,9.57
2017-11-28T08:02:16.828Z,10.33
2017-11-28T08:04:45.096Z,9.80
2017-11-28T08:07:13.500Z,10.70
2017-11-28T08:09:41.821Z,9.90
2017-11-28T08:12:10.857Z,9.80
2017-11-28T08:14:39.285Z,9.13
2017-11-28T08:17:07.560Z,10.50
2017-11-28T08:19:35.879Z,8.80
2017-11-28T08:22:04.401Z,10.67
2017-11-28T08:24:32.804Z,11.60
2017-11-28T08:27:01.222Z,10.83
2017-11-28T08:29:29.772Z,11.03
2017-11-28T08:31:58.157Z,11.40
2017-11-28T08:34:26.589Z,12.13
2017-11-28T08:36:55.105Z,10.73
2017-11-28T08:39:23.529Z,10.77
2017-11-28T08:41:52.705Z,11.27
2017-11-28T08:44:22.139Z,11.40
2017-11-28T08:46:50.588Z,10.60
2017-11-28T08:49:18.977Z,11.13
2017-11-28T08:51:48.348Z,11.87
2017-11-28T08:54:16.669Z,10.37
2017-11-28T08:56:45.725Z,10.90
2017-11-28T08:59:14.133Z,11.33
2017-11-28T09:01:43.172Z,11.57
2017-11-28T09:04:11.417Z,10.67
2017-11-28T09:06:40.553Z,10.97
2017-11-28T09:09:08.909Z,9.97
2017-11-28T09:11:37.205Z,11.40
2017-11-28T09:14:05.627Z,11.43
2017-11-28T09:16:33.950Z,11.03
2017-11-28T09:19:02.225Z,11.27
2017-11-28T09:21:30.658Z,12.47
2017-11-28T09:23:59.000Z,10.67
2017-11-28T09:26:27.240Z,9.97
2017-11-28T09:28:56.425Z,10.83
2017-11-28T09:31:24.656Z,11.70
2017-11-28T09:33:52.977Z,11.90
2017-11-28T09:36:21.413Z,11.50
2017-11-28T09:38:49.600Z,11.97
2017-11-28T09:41:17.832Z,11.50
2017-11-28T09:43:46.998Z,11.87
2017-11-28T09:46:15.493Z,11.17
2017-11-28T09:48:43.781Z,10.87
2017-11-28T09:51:12.939Z,11.43
2017-11-28T09:53:41.032Z,11.07
2017-11-28T09:56:09.177Z,10.00
2017-11-28T09:58:37.530Z,11.50
2017-11-28T10:01:05.850Z,12.67
2017-11-28T10:03:34.029Z,11.73
2017-11-28T10:06:02.424Z,11.90
2017-11-28T10:08:30.629Z,11.17
2017-11-28T10:10:59.603Z,12.87
2017-11-28T10:13:27.962Z,11.07
2017-11-28T10:15:56.127Z,10.27
2017-11-28T10:18:24.284Z,11.10
2017-11-28T10:20:52.617Z,11.43
2017-11-28T10:23:20.754Z,11.20
2017-11-28T10:25:48.921Z,10.50
2017-11-28T10:28:17.342Z,11.73
2017-11-28T10:30:45.565Z,11.97
2017-11-28T10:33:13.748Z,11.80
2017-11-28T10:35:41.953Z,10.43
2017-11-28T10:38:10.232Z,11.27
2017-11-28T10:40:38.367Z,10.20
2017-11-28T10:43:06.761Z,11.23
2017-11-28T10:45:34.933Z,9.47
2017-11-28T10:48:03.385Z,12.10
2017-11-28T10:50:31.714Z,10.13
2017-11-28T10:52:59.795Z,12.30
2017-11-28T10:55:28.001Z,9.77
2017-11-28T10:57:56.908Z,10.53
2017-11-28T11:00:25.358Z,10.80
2017-11-28T11:02:53.592Z,9.50
2017-11-28T11:05:21.832Z,10.50
2017-11-28T11:07:50.848Z,11.90
2017-11-28T11:10:18.963Z,9.90
2017-11-28T11:12:47.333Z,10.57
2017-11-28T11:15:15.559Z,10.77
2017-11-28T11:17:44.480Z,11.90
2017-11-28T11:20:12.856Z,11.07
2017-11-28T11:22:41.160Z,10.13
2017-11-28T11:25:09.289Z,10.50
2017-11-28T11:27:38.401Z,10.23
2017-11-28T11:30:06.594Z,10.17
2017-11-28T11:32:34.949Z,9.93
2017-11-28T11:35:03.196Z,11.00
2017-11-28T11:37:31.353Z,11.00
2017-11-28T11:39:59.465Z,10.73
2017-11-28T11:42:28.601Z,12.20
2017-11-28T11:44:56.797Z,11.67
2017-11-28T11:47:24.922Z,11.93
2017-11-28T11:49:53.217Z,11.57
2017-11-28T11:52:21.373Z,10.93
2017-11-28T11:54:50.200Z,10.47
2017-11-28T11:57:18.460Z,10.60
2017-11-28T11:59:46.680Z,10.67
2017-11-28T12:02:14.921Z,9.33
2017-11-28T12:04:43.226Z,10.50
2017-11-28T12:07:11.513Z,10.03
2017-11-28T12:09:39.610Z,10.20
2017-11-28T12:12:08.692Z,9.77
2017-11-28T12:14:36.812Z,9.50
2017-11-28T12:17:05.002Z,9.30
2017-11-28T12:19:33.313Z,9.13
2017-11-28T12:22:01.512Z,9.20
2017-11-28T12:24:30.423Z,8.60
2017-11-28T12:26:58.912Z,8.50
2017-11-28T12:29:27.149Z,7.97
2017-11-28T12:31:55.228Z,9.63
2017-11-28T12:34:24.465Z,10.20
2017-11-28T12:36:52.560Z,8.87
2017-11-28T12:39:20.804Z,9.70
2017-11-28T12:41:49.117Z,10.90
2017-11-28T12:44:17.292Z,9.50
2017-11-28T12:46:45.393Z,10.63
2017-11-28T12:49:13.625Z,11.07
2017-11-28T12:51:41.744Z,11.10
2017-11-28T12:54:09.949Z,9.13
2017-11-28T12:56:39.032Z,9.87
2017-11-28T12:59:08.016Z,10.57
2017-11-28T13:01:36.205Z,10.17
2017-11-28T13:04:05.342Z,10.10
2017-11-28T13:06:33.594Z,9.20
2017-11-28T13:09:02.561Z,9.47
2017-11-28T13:11:30.915Z,8.93
2017-11-28T13:13:59.089Z,9.70
2017-11-28T13:16:27.344Z,9.70
2017-11-28T13:18:55.740Z,10.03
2017-11-28T13:21:23.884Z,9.90
2017-11-28T13:23:52.089Z,9.20
2017-11-28T13:26:20.521Z,8.30
2017-11-28T13:28:48.738Z,8.63
2017-11-28T13:31:16.997Z,8.80
2017-11-28T13:33:45.433Z,10.60
2017-11-28T13:36:13.933Z,9.57
2017-11-28T13:38:42.852Z,10.67
2017-11-28T13:41:11.349Z,10.17
2017-11-28T13:43:39.438Z,8.83
2017-11-28T13:46:10.493Z,10.30
2017-11-28T13:48:38.917Z,10.10
2017-11-28T13:51:07.889Z,8.43
2017-11-28T13:53:36.117Z,10.20
2017-11-28T13:56:04.452Z,9.50
2017-11-28T13:58:33.287Z,9.53
2017-11-28T14:01:01.657Z,11.70
2017-11-28T14:03:30.264Z,9.50
2017-11-28T14:05:58.608Z,10.70
2017-11-28T14:08:27.540Z,11.60
2017-11-28T14:10:55.853Z,12.30
2017-11-28T14:13:25.244Z,10.17
2017-11-28T14:15:53.441Z,11.07
2017-11-28T14:18:22.653Z,11.07
2017-11-28T14:20:52.850Z,12.97
2017-11-28T14:23:36.978Z,11.53
2017-11-28T14:26:19.980Z,11.00
2017-11-28T14:28:59.033Z,11.27
2017-11-28T14:31:47.921Z,11.43
2017-11-28T14:34:17.224Z,10.20
2017-11-28T14:36:49.557Z,12.50
2017-11-28T14:39:19.762Z,11.97
2017-11-28T14:41:48.326Z,11.27
2017-11-28T14:44:18.403Z,10.83
2017-11-28T14:46:46.990Z,10.80
2017-11-28T14:49:15.426Z,11.40
2017-11-28T14:51:55.581Z,11.67
2017-11-28T14:54:36.599Z,11.00
2017-11-28T14:57:09.053Z,11.63
2017-11-28T14:59:43.167Z,12.20
2017-11-28T15:02:27.184Z,11.73
2017-11-28T15:05:01.306Z,11.80
2017-11-28T15:07:35.316Z,11.30
2017-11-28T15:10:06.567Z,9.97
2017-11-28T15:26:18.593Z,9.70
2017-11-28T15:28:58.557Z,10.30
2017-11-28T15:31:27.130Z,10.47
2017-11-28T15:33:55.596Z,9.00
2017-11-28T15:36:23.883Z,9.90
2017-11-28T15:38:52.481Z,9.10
2017-11-28T15:41:20.817Z,9.40
2017-11-28T15:43:49.105Z,8.90
2017-11-28T15:46:17.576Z,9.13
2017-11-28T15:48:46.537Z,8.60
2017-11-28T15:51:14.753Z,10.43
2017-11-28T15:53:43.105Z,8.93
2017-11-28T15:56:12.060Z,8.57
2017-11-28T15:58:40.281Z,9.40
2017-11-28T16:01:09.485Z,9.27
2017-11-28T16:03:38.456Z,8.60
2017-11-28T16:06:06.662Z,9.37
2017-11-28T16:08:35.816Z,9.53
2017-11-28T16:11:04.049Z,8.40
2017-11-28T16:13:32.163Z,8.10
2017-11-28T16:16:00.449Z,8.57
2017-11-28T16:18:28.537Z,8.03
2017-11-28T16:20:56.677Z,8.97
2017-11-28T16:23:25.081Z,7.77
2017-11-28T16:25:53.152Z,9.23
2017-11-28T16:28:21.356Z,9.00
2017-11-28T16:30:50.393Z,9.67
2017-11-28T16:33:18.609Z,8.03
2017-11-28T16:35:46.916Z,9.00
2017-11-28T16:38:15.973Z,7.70
2017-11-28T16:40:44.356Z,7.80
2017-11-28T16:43:12.718Z,8.10
2017-11-28T16:45:40.985Z,8.43
2017-11-28T16:48:09.114Z,7.90
2017-11-28T16:50:38.077Z,7.97
2017-11-28T16:53:06.299Z,9.10
2017-11-28T16:55:34.580Z,8.50
2017-11-28T16:58:02.855Z,8.10
2017-11-28T17:00:31.270Z,7.97
2017-11-28T17:02:59.446Z,7.83
2017-11-28T17:05:27.701Z,7.80
2017-11-28T17:07:56.053Z,7.90
2017-11-28T17:10:24.920Z,9.10
2017-11-28T17:12:53.244Z,8.73
2017-11-28T17:15:21.793Z,6.97
2017-11-28T17:17:50.054Z,7.70
2017-11-28T17:20:18.336Z,7.10
2017-11-28T17:22:46.748Z,7.27
2017-11-28T17:25:15.821Z,8.30
2017-11-28T17:27:43.980Z,7.03
2017-11-28T17:30:12.228Z,7.33
2017-11-28T17:32:40.676Z,8.00
2017-11-28T17:41:23.292Z,7.33
2017-11-28T17:43:51.602Z,8.00
2017-11-28T17:46:20.492Z,6.50
2017-11-28T17:48:49.561Z,7.50
2017-11-28T17:51:17.778Z,7.20
2017-11-28T17:53:46.620Z,7.43
2017-11-28T17:56:14.896Z,6.80
2017-11-28T17:58:43.184Z,8.00
2017-11-28T18:01:11.500Z,7.70
2017-11-28T18:03:40.573Z,7.37
2017-11-28T18:06:09.028Z,7.20
2017-11-28T18:08:37.264Z,6.60
2017-11-28T18:11:05.535Z,7.20
2017-11-28T18:13:34.404Z,8.30
2017-11-28T18:16:02.593Z,7.10
2017-11-28T18:18:31.585Z,7.30
2017-11-28T18:21:00.505Z,8.13
2017-11-28T18:23:28.696Z,7.23
2017-11-28T18:25:57.017Z,8.77
2017-11-28T18:28:25.148Z,7.73
2017-11-28T18:30:53.430Z,8.10
2017-11-28T18:33:21.775Z,7.60
2017-11-28T18:35:50.715Z,8.87
2017-11-28T18:38:18.820Z,7.43
2017-11-28T18:40:47.384Z,6.67
2017-11-28T18:43:15.593Z,7.47
2017-11-28T18:45:44.488Z,8.13
2017-11-28T18:48:13.716Z,6.70
2017-11-28T18:50:41.922Z,8.07
2017-11-28T18:53:10.072Z,7.97
2017-11-28T18:55:38.340Z,8.30
2017-11-28T18:58:06.585Z,7.10
2017-11-28T19:00:34.941Z,6.43
2017-11-28T19:03:03.209Z,7.37
2017-11-28T19:05:31.376Z,7.17
2017-11-28T19:07:59.624Z,6.93
2017-11-28T19:10:27.844Z,8.00
2017-11-28T19:12:56.165Z,7.43
2017-11-28T19:15:25.072Z,7.10
2017-11-28T19:17:53.316Z,7.50
2017-11-28T19:20:21.572Z,8.47
2017-11-28T19:22:49.656Z,8.07
2017-11-28T19:25:18.010Z,7.43
2017-11-28T19:27:46.296Z,6.80
2017-11-28T19:30:14.421Z,8.87
2017-11-28T19:32:43.449Z,6.97
2017-11-28T19:35:11.556Z,7.97
2017-11-28T19:37:39.825Z,8.47
2017-11-28T19:40:08.217Z,8.57
2017-11-28T19:42:36.377Z,7.10
2017-11-28T19:45:04.873Z,8.80
2017-11-28T19:47:33.180Z,7.90
2017-11-28T19:50:02.241Z,8.37
2017-11-28T19:52:30.532Z,7.70
2017-11-28T19:54:58.904Z,6.90
2017-11-28T19:57:27.029Z,8.10
2017-11-28T19:59:55.200Z,9.13
2017-11-28T20:02:23.387Z,7.50
2017-11-28T20:04:51.472Z,5.90
2017-11-28T20:07:19.656Z,7.10
2017-11-28T20:09:47.880Z,7.10
2017-11-28T20:12:16.780Z,6.57
2017-11-28T20:14:45.596Z,6.97
2017-11-28T20:17:14.009Z,6.77
2017-11-28T20:19:42.401Z,7.50
2017-11-28T20:22:10.529Z,7.03
2017-11-28T20:24:38.941Z,6.53
2017-11-28T20:27:07.084Z,6.77
2017-11-28T20:29:35.317Z,7.10
2017-11-28T20:32:03.857Z,7.13
2017-11-28T20:34:32.033Z,6.40
2017-11-28T20:37:00.125Z,7.20
2017-11-28T20:39:28.542Z,8.17
2017-11-28T20:41:57.472Z,7.73
2017-11-28T20:44:25.749Z,6.33
2017-11-28T20:46:54.385Z,6.90
2017-11-28T20:49:28.378Z,6.50
2017-11-28T20:51:56.629Z,6.77
2017-11-28T20:54:25.036Z,5.43
2017-11-28T20:56:53.304Z,7.70
2017-11-28T20:59:21.741Z,7.40
2017-11-28T21:01:50.005Z,6.17
2017-11-28T21:04:18.988Z,7.30
2017-11-28T21:06:47.308Z,7.00
2017-11-28T21:09:15.497Z,5.47
2017-11-28T21:11:43.676Z,6.37
2017-11-28T21:14:12.109Z,5.70
2017-11-28T21:16:41.073Z,6.50
2017-11-28T21:19:09.296Z,6.90
2017-11-28T21:21:37.585Z,6.67
2017-11-28T21:24:05.713Z,7.13
2017-11-28T21:26:33.947Z,6.57
2017-11-28T21:29:02.236Z,7.47
2017-11-28T21:31:30.520Z,5.63
2017-11-28T21:33:58.675Z,5.60
2017-11-28T21:36:26.917Z,6.73
2017-11-28T21:38:55.880Z,5.97
2017-11-28T21:41:24.056Z,6.27
2017-11-28T21:43:52.272Z,6.00
2017-11-28T21:46:21.145Z,7.87
2017-11-28T21:48:50.281Z,6.90
2017-11-28T21:51:18.616Z,6.67
2017-11-28T21:53:46.884Z,6.87
2017-11-28T21:56:15.161Z,7.13
2017-11-28T21:58:43.544Z,6.27
2017-11-28T22:01:11.620Z,8.90
2017-11-28T22:03:39.813Z,7.10
2017-11-28T22:06:08.759Z,7.83
2017-11-28T22:08:36.878Z,6.43
2017-11-28T22:11:05.751Z,6.80
2017-11-28T22:13:34.042Z,7.10
2017-11-28T22:16:03.029Z,6.73
2017-11-28T22:18:31.200Z,6.83
2017-11-28T22:20:59.463Z,7.10
2017-11-28T22:23:27.789Z,7.07
2017-11-28T22:25:55.944Z,6.63
2017-11-28T22:28:25.036Z,6.13
2017-11-28T22:30:53.857Z,7.20
2017-11-28T22:33:22.064Z,7.53
2017-11-28T22:35:50.236Z,7.93
2017-11-28T22:38:18.429Z,8.23
2017-11-28T22:40:46.608Z,7.17
2017-11-28T22:43:14.989Z,7.30
2017-11-28T22:45:43.253Z,7.03
2017-11-28T22:48:11.421Z,7.67
2017-11-28T22:50:39.784Z,6.80
2017-11-28T22:53:07.899Z,7.77
2017-11-28T22:55:36.053Z,7.30
2017-11-28T22:58:04.479Z,6.67
2017-11-28T23:00:33.323Z,7.57
2017-11-28T23:03:01.451Z,7.40
2017-11-28T23:05:30.625Z,6.90
2017-11-28T23:07:58.712Z,7.33
2017-11-28T23:10:27.581Z,6.20
2017-11-28T23:12:55.869Z,7.00
2017-11-28T23:15:24.093Z,5.83
2017-11-28T23:17:52.401Z,6.40
2017-11-28T23:20:20.845Z,5.80
2017-11-28T23:22:49.123Z,6.60
2017-11-28T23:25:17.184Z,6.70
2017-11-28T23:27:46.253Z,6.50
2017-11-28T23:30:14.441Z,5.63
2017-11-28T23:32:43.417Z,5.80
2017-11-28T23:35:11.748Z,5.10
2017-11-28T23:37:39.953Z,5.23
2017-11-28T23:40:08.237Z,5.80
2017-11-28T23:42:36.608Z,6.83
2017-11-28T23:45:04.861Z,6.20
2017-11-28T23:47:32.928Z,5.80
2017-11-28T23:50:01.249Z,6.10
2017-11-28T23:52:29.740Z,6.60
2017-11-28T23:54:57.936Z,6.13
2017-11-28T23:57:27.532Z,5.50
2017-11-28T23:59:55.736Z,6.77
